Time;durP1;ratioP1;P1;durP2;ratioP2;P2;SDS_P1;SDS_P2;PMS_P1;PMS_P2;Temp;Humidity;BMP_temperature;BMP_pressure;BME280_temperature;BME280_humidity;BME280_pressure;Samples;Min_cycle;Max_cycle;Signal;HPM_P1;HPM_P2
2021/05/29 00:00:56;;;;;;;15.52;11.05;;;9.60;99.40;;;;;;5023014;28;20041;-66
2021/05/29 00:03:24;;;;;;;20.63;12.32;;;9.60;99.30;;;;;;5031332;28;20033;-66
2021/05/29 00:05:50;;;;;;;13.13;10.75;;;9.50;99.40;;;;;;5027561;28;20038;-66
2021/05/29 00:08:16;;;;;;;17.75;12.18;;;9.50;99.40;;;;;;5032265;28;20042;-66
2021/05/29 00:10:46;;;;;;;15.50;11.10;;;9.50;99.40;;;;;;5027546;28;20038;-66
2021/05/29 00:13:13;;;;;;;18.33;11.63;;;9.40;99.50;;;;;;5027850;28;20496;-66
2021/05/29 00:15:40;;;;;;;15.10;10.98;;;9.40;99.40;;;;;;5037453;28;20041;-66
2021/05/29 00:18:06;;;;;;;18.85;11.65;;;9.40;99.40;;;;;;5029738;28;20045;-65
2021/05/29 00:20:33;;;;;;;13.88;10.13;;;9.30;99.40;;;;;;5030894;28;20036;-66
2021/05/29 00:23:00;;;;;;;13.65;10.00;;;9.30;99.30;;;;;;5027197;28;20394;-66
2021/05/29 00:25:26;;;;;;;13.18;10.00;;;9.30;99.20;;;;;;5044442;28;20039;-66
2021/05/29 00:27:52;;;;;;;14.63;10.68;;;9.20;99.30;;;;;;5024695;28;20037;-65
2021/05/29 00:30:19;;;;;;;14.32;10.73;;;9.20;99.30;;;;;;5031372;28;20054;-65
2021/05/29 00:32:46;;;;;;;16.67;10.98;;;9.20;99.40;;;;;;5026978;28;20476;-65
2021/05/29 00:35:12;;;;;;;12.45;9.05;;;9.10;99.40;;;;;;5033138;28;20160;-65
2021/05/29 00:37:38;;;;;;;16.27;11.20;;;9.10;99.40;;;;;;5025644;28;20037;-65
2021/05/29 00:40:06;;;;;;;13.55;9.85;;;9.10;99.30;;;;;;5031117;28;20125;-65
2021/05/29 00:42:33;;;;;;;12.55;10.13;;;9.10;99.30;;;;;;5028868;28;20056;-65
2021/05/29 00:45:00;;;;;;;16.50;11.75;;;9.10;99.20;;;;;;5027498;28;20053;-65
2021/05/29 00:47:28;;;;;;;13.88;11.30;;;9.00;99.30;;;;;;5022903;28;20037;-65
2021/05/29 00:50:00;;;;;;;18.42;11.30;;;9.00;99.40;;;;;;5036359;28;20049;-65
2021/05/29 00:52:26;;;;;;;18.40;11.18;;;9.00;99.80;;;;;;5043726;28;20045;-65
2021/05/29 00:54:53;;;;;;;17.77;12.35;;;9.00;99.90;;;;;;5030340;28;20319;-65
2021/05/29 00:57:20;;;;;;;18.13;11.68;;;9.00;99.90;;;;;;5031796;28;20053;-65
2021/05/29 00:59:46;;;;;;;14.05;10.18;;;8.90;99.90;;;;;;5025049;28;20505;-66
2021/05/29 01:02:14;;;;;;;19.17;11.90;;;8.90;99.90;;;;;;5024195;28;20046;-66
2021/05/29 01:04:40;;;;;;;14.38;11.63;;;8.90;99.90;;;;;;5026634;28;20120;-65
2021/05/29 01:07:13;;;;;;;15.63;11.15;;;8.80;99.90;;;;;;5037426;28;20138;-65
2021/05/29 01:09:40;;;;;;;16.80;12.07;;;8.80;99.90;;;;;;5031684;28;20052;-65
2021/05/29 01:12:08;;;;;;;15.23;11.90;;;8.80;99.90;;;;;;5029605;28;20044;-65
2021/05/29 01:14:35;;;;;;;13.80;10.93;;;8.80;99.90;;;;;;5028421;28;20044;-65
2021/05/29 01:17:03;;;;;;;18.05;11.60;;;8.80;99.90;;;;;;5031759;28;20037;-66
2021/05/29 01:19:30;;;;;;;16.30;11.55;;;8.70;99.90;;;;;;5035776;28;20107;-65
2021/05/29 01:22:04;;;;;;;16.95;11.77;;;8.70;99.90;;;;;;5029366;28;20512;-65
2021/05/29 01:24:30;;;;;;;16.25;12.10;;;8.60;99.90;;;;;;5027930;28;20128;-66
2021/05/29 01:26:56;;;;;;;19.25;13.85;;;8.60;99.90;;;;;;5035469;28;20467;-66
2021/05/29 01:29:22;;;;;;;18.60;13.68;;;8.60;99.90;;;;;;5028652;28;20369;-65
2021/05/29 01:31:58;;;;;;;16.90;12.85;;;8.60;99.90;;;;;;5030228;28;20044;-65
2021/05/29 01:34:24;;;;;;;12.05;10.75;;;8.60;99.90;;;;;;5024831;28;20081;-65
2021/05/29 01:36:49;;;;;;;16.75;12.25;;;8.50;99.90;;;;;;5038861;28;20543;-65
2021/05/29 01:39:15;;;;;;;19.83;13.38;;;8.50;99.90;;;;;;5033354;28;20037;-65
2021/05/29 01:41:43;;;;;;;16.52;13.23;;;8.50;99.90;;;;;;5026354;28;20532;-65
2021/05/29 01:44:09;;;;;;;14.70;11.10;;;8.50;99.90;;;;;;5029335;28;20072;-65
2021/05/29 01:46:35;;;;;;;13.48;11.73;;;8.40;99.90;;;;;;5026589;28;20058;-65
2021/05/29 01:49:01;;;;;;;15.40;12.00;;;8.40;99.90;;;;;;5026020;28;20474;-65
2021/05/29 01:51:26;;;;;;;15.65;11.27;;;8.40;99.90;;;;;;5022053;28;20455;-65
2021/05/29 01:53:54;;;;;;;17.25;12.25;;;8.30;99.90;;;;;;5035838;28;20043;-65
2021/05/29 01:56:20;;;;;;;16.98;13.00;;;8.30;99.90;;;;;;5025565;28;20053;-66
2021/05/29 01:58:47;;;;;;;15.18;12.27;;;8.30;99.90;;;;;;5025758;28;20053;-65
2021/05/29 02:01:14;;;;;;;18.52;13.35;;;8.30;99.90;;;;;;5023520;28;20053;-65
2021/05/29 02:03:44;;;;;;;18.27;12.07;;;8.20;99.90;;;;;;5032567;28;20557;-65
2021/05/29 02:06:11;;;;;;;14.60;10.85;;;8.30;99.90;;;;;;5023629;28;20061;-66
2021/05/29 02:08:37;;;;;;;16.75;11.45;;;8.30;99.90;;;;;;5032967;28;20048;-66
2021/05/29 02:11:03;;;;;;;12.00;8.93;;;8.20;99.90;;;;;;5023674;28;20076;-65
2021/05/29 02:13:34;;;;;;;9.85;8.50;;;8.20;99.90;;;;;;5028733;28;20069;-65
2021/05/29 02:16:05;;;;;;;9.65;8.35;;;8.10;99.90;;;;;;5025845;28;20521;-65
2021/05/29 02:18:32;;;;;;;12.23;7.97;;;8.10;99.90;;;;;;5027444;28;20053;-65
2021/05/29 02:21:02;;;;;;;12.32;7.82;;;8.10;99.90;;;;;;5028096;28;20603;-65
2021/05/29 02:23:30;;;;;;;8.30;6.97;;;8.00;99.90;;;;;;5024316;28;20149;-65
2021/05/29 02:26:02;;;;;;;7.20;6.20;;;8.00;99.90;;;;;;5024482;28;20112;-65
2021/05/29 02:28:28;;;;;;;7.65;6.15;;;7.90;99.90;;;;;;5025784;28;20191;-65
2021/05/29 02:30:56;;;;;;;8.70;7.32;;;7.90;99.90;;;;;;5038238;28;20045;-65
2021/05/29 02:33:23;;;;;;;7.55;6.63;;;7.90;99.90;;;;;;5022205;28;20122;-65
2021/05/29 02:35:49;;;;;;;8.77;6.53;;;7.80;99.90;;;;;;5029924;28;20133;-65
2021/05/29 02:38:17;;;;;;;8.13;7.32;;;7.90;99.90;;;;;;5021994;28;20038;-65
2021/05/29 02:40:43;;;;;;;9.15;7.60;;;7.80;99.90;;;;;;5031808;28;20047;-65
2021/05/29 02:43:08;;;;;;;8.32;7.53;;;7.80;99.90;;;;;;5018868;28;20053;-65
2021/05/29 02:45:35;;;;;;;8.38;7.28;;;7.80;99.90;;;;;;5039070;28;20118;-65
2021/05/29 02:48:02;;;;;;;11.52;8.48;;;7.80;99.90;;;;;;5035341;28;20033;-65
2021/05/29 02:50:28;;;;;;;9.90;7.60;;;7.80;99.90;;;;;;5029658;28;20033;-65
2021/05/29 02:52:53;;;;;;;13.07;8.43;;;7.70;99.90;;;;;;5023017;28;20342;-65
2021/05/29 02:55:23;;;;;;;12.57;8.48;;;7.70;99.90;;;;;;5034040;28;20038;-65
2021/05/29 02:57:56;;;;;;;10.63;8.18;;;7.70;99.90;;;;;;5021989;28;20041;-65
2021/05/29 03:00:28;;;;;;;12.73;8.73;;;7.70;99.90;;;;;;5033608;28;20076;-65
2021/05/29 03:02:54;;;;;;;10.38;8.52;;;7.70;99.90;;;;;;5031054;28;20088;-66
2021/05/29 03:05:21;;;;;;;9.13;7.82;;;7.60;99.90;;;;;;5042008;28;20065;-65
2021/05/29 03:07:47;;;;;;;9.82;8.23;;;7.60;99.90;;;;;;5023541;28;20041;-65
2021/05/29 03:10:14;;;;;;;8.45;7.32;;;7.60;99.90;;;;;;5024264;28;20038;-65
2021/05/29 03:12:41;;;;;;;7.65;6.85;;;7.60;99.90;;;;;;5031010;28;20037;-65
2021/05/29 03:15:09;;;;;;;9.63;7.82;;;7.50;99.90;;;;;;5027786;28;20033;-65
2021/05/29 03:17:35;;;;;;;7.63;6.55;;;7.50;99.90;;;;;;5024591;28;20344;-65
2021/05/29 03:20:06;;;;;;;7.30;6.63;;;7.50;99.90;;;;;;5026426;28;20053;-65
2021/05/29 03:22:32;;;;;;;9.10;7.95;;;7.50;99.90;;;;;;5032194;28;20079;-65
2021/05/29 03:24:58;;;;;;;8.77;7.93;;;7.50;99.90;;;;;;5027565;28;20453;-65
2021/05/29 03:27:25;;;;;;;7.82;7.13;;;7.40;99.90;;;;;;5023339;28;20052;-65
2021/05/29 03:29:51;;;;;;;7.70;7.03;;;7.40;99.90;;;;;;5027393;28;20056;-65
2021/05/29 03:32:17;;;;;;;8.05;7.32;;;7.50;99.90;;;;;;5038096;28;20448;-65
2021/05/29 03:34:43;;;;;;;7.43;6.65;;;7.50;99.90;;;;;;5026482;28;20226;-65
2021/05/29 03:37:09;;;;;;;7.32;5.97;;;7.50;99.90;;;;;;5025783;28;20033;-65
2021/05/29 03:39:35;;;;;;;7.40;6.65;;;7.60;99.90;;;;;;5030198;28;20041;-65
2021/05/29 03:42:02;;;;;;;7.80;7.10;;;7.60;99.90;;;;;;5039063;28;20123;-65
2021/05/29 03:44:28;;;;;;;7.03;6.32;;;7.70;99.90;;;;;;5022850;28;20048;-65
2021/05/29 03:46:54;;;;;;;7.57;6.88;;;7.70;99.90;;;;;;5029309;28;20121;-65
2021/05/29 03:49:20;;;;;;;8.25;7.55;;;7.70;99.90;;;;;;5031850;28;20065;-66
2021/05/29 03:51:45;;;;;;;7.60;6.80;;;7.80;99.90;;;;;;5028844;28;20056;-65
2021/05/29 03:54:12;;;;;;;8.07;6.55;;;7.80;99.90;;;;;;5028046;28;20409;-65
2021/05/29 03:56:38;;;;;;;7.07;6.47;;;7.90;99.90;;;;;;5023440;28;20052;-65
2021/05/29 03:59:04;;;;;;;6.90;6.20;;;8.00;99.90;;;;;;5034195;28;20072;-65
2021/05/29 04:01:32;;;;;;;6.03;5.40;;;8.00;99.90;;;;;;5029012;28;20029;-66
2021/05/29 04:03:59;;;;;;;8.43;7.40;;;8.10;99.90;;;;;;5035129;28;20485;-66
2021/05/29 04:06:25;;;;;;;8.30;7.50;;;8.10;99.90;;;;;;5030074;28;20489;-66
2021/05/29 04:08:51;;;;;;;9.02;8.13;;;8.30;99.90;;;;;;5030817;28;20045;-66
2021/05/29 04:11:16;;;;;;;9.55;8.55;;;8.30;99.90;;;;;;5022542;28;20086;-66
2021/05/29 04:13:43;;;;;;;8.88;7.97;;;8.40;99.90;;;;;;5023188;28;20052;-66
2021/05/29 04:16:09;;;;;;;10.02;8.50;;;8.50;99.90;;;;;;5022764;28;20447;-66
2021/05/29 04:18:35;;;;;;;10.20;8.73;;;8.50;99.90;;;;;;5037844;28;20110;-66
2021/05/29 04:21:01;;;;;;;13.15;11.23;;;8.60;99.90;;;;;;5028517;28;20438;-66
2021/05/29 04:23:27;;;;;;;14.70;11.90;;;8.60;99.90;;;;;;5019565;28;20034;-66
2021/05/29 04:25:53;;;;;;;15.77;12.07;;;8.70;99.90;;;;;;5026324;28;20041;-66
2021/05/29 04:28:21;;;;;;;16.67;13.27;;;8.80;99.90;;;;;;5030748;28;20119;-66
2021/05/29 04:30:47;;;;;;;14.60;12.88;;;8.90;99.90;;;;;;5021560;28;20034;-66
2021/05/29 04:33:13;;;;;;;15.80;13.40;;;9.00;99.90;;;;;;5027980;28;20033;-66
2021/05/29 04:35:39;;;;;;;16.83;14.40;;;9.00;99.90;;;;;;5037626;28;20040;-66
2021/05/29 04:38:05;;;;;;;19.92;15.88;;;9.10;99.90;;;;;;5031922;28;20040;-66
2021/05/29 04:40:31;;;;;;;24.02;17.50;;;9.20;99.90;;;;;;5035663;28;20029;-66
2021/05/29 04:43:00;;;;;;;22.02;17.15;;;9.30;99.90;;;;;;5025819;28;20363;-66
2021/05/29 04:45:26;;;;;;;23.05;16.45;;;9.40;99.90;;;;;;5033986;28;20531;-66
2021/05/29 04:47:53;;;;;;;22.50;16.98;;;9.40;99.90;;;;;;5028515;28;20041;-66
2021/05/29 04:50:20;;;;;;;19.90;15.38;;;9.50;99.90;;;;;;5037881;28;20037;-66
2021/05/29 04:52:46;;;;;;;18.15;14.60;;;9.50;99.90;;;;;;5027489;28;20116;-66
2021/05/29 04:55:12;;;;;;;23.45;15.40;;;9.50;99.90;;;;;;5037289;28;20128;-66
2021/05/29 04:57:37;;;;;;;20.20;14.82;;;9.60;99.90;;;;;;5028588;28;20064;-66
2021/05/29 05:00:07;;;;;;;19.23;15.35;;;9.60;99.90;;;;;;5034268;28;20499;-66
2021/05/29 05:02:33;;;;;;;22.20;15.07;;;9.70;99.90;;;;;;5027539;28;20067;-66
2021/05/29 05:04:59;;;;;;;20.67;15.43;;;9.70;99.90;;;;;;5031922;28;20034;-66
2021/05/29 05:07:24;;;;;;;22.80;16.52;;;9.80;99.90;;;;;;5027837;28;20044;-66
2021/05/29 05:09:50;;;;;;;25.77;17.42;;;9.80;99.90;;;;;;5045095;28;20125;-66
2021/05/29 05:12:16;;;;;;;22.27;16.55;;;9.90;99.90;;;;;;5030225;28;20029;-66
2021/05/29 05:14:42;;;;;;;21.33;17.50;;;10.00;99.90;;;;;;5023046;28;20040;-66
2021/05/29 05:17:08;;;;;;;22.65;17.65;;;10.00;99.90;;;;;;5041365;28;20128;-66
2021/05/29 05:19:33;;;;;;;23.85;18.30;;;10.00;99.90;;;;;;5031435;28;20079;-66
2021/05/29 05:22:00;;;;;;;26.80;18.35;;;10.10;99.90;;;;;;5026987;28;20037;-66
2021/05/29 05:24:25;;;;;;;22.80;18.20;;;10.10;99.90;;;;;;5026184;28;20381;-66
2021/05/29 05:26:51;;;;;;;27.13;18.98;;;10.20;99.90;;;;;;5030877;28;21140;-66
2021/05/29 05:29:17;;;;;;;21.55;17.55;;;10.20;99.90;;;;;;5029709;28;20048;-66
2021/05/29 05:31:44;;;;;;;24.58;18.00;;;10.30;99.90;;;;;;5033416;28;20060;-66
2021/05/29 05:34:11;;;;;;;23.23;18.90;;;10.30;99.90;;;;;;5032422;28;20046;-66
2021/05/29 05:36:38;;;;;;;27.00;19.40;;;10.40;99.90;;;;;;5046060;28;20644;-66
2021/05/29 05:39:08;;;;;;;24.00;19.02;;;10.50;99.90;;;;;;5022691;28;20073;-66
2021/05/29 05:41:35;;;;;;;25.45;18.48;;;10.50;99.90;;;;;;5029292;28;20076;-66
2021/05/29 05:44:01;;;;;;;20.45;17.65;;;10.70;99.90;;;;;;5032335;28;22788;-66
2021/05/29 05:46:27;;;;;;;26.95;18.90;;;10.80;99.90;;;;;;5039952;28;20103;-66
2021/05/29 05:48:52;;;;;;;24.70;18.88;;;10.80;99.90;;;;;;5028418;28;20038;-66
2021/05/29 05:51:19;;;;;;;26.08;19.75;;;10.90;99.90;;;;;;5029907;28;20412;-66
2021/05/29 05:53:45;;;;;;;24.38;18.75;;;11.00;99.90;;;;;;5039481;28;20446;-66
2021/05/29 05:56:12;;;;;;;26.33;17.55;;;11.00;99.90;;;;;;5019758;28;20030;-66
2021/05/29 05:58:38;;;;;;;22.80;19.10;;;11.10;99.90;;;;;;5027816;28;20048;-66
2021/05/29 06:01:06;;;;;;;20.70;17.88;;;11.20;99.90;;;;;;5021012;28;20532;-66
2021/05/29 06:03:34;;;;;;;25.52;17.45;;;11.30;99.90;;;;;;5035210;28;20084;-66
2021/05/29 06:05:59;;;;;;;24.17;17.80;;;11.40;99.90;;;;;;5022242;28;20120;-66
2021/05/29 06:08:25;;;;;;;21.65;17.27;;;11.50;99.90;;;;;;5033150;28;20578;-66
2021/05/29 06:10:52;;;;;;;27.50;18.60;;;11.50;99.90;;;;;;5022457;28;20124;-66
2021/05/29 06:21:16;;;;;;;25.27;19.73;;;11.70;99.90;;;;;;5026686;28;20249;-66
2021/05/29 06:23:42;;;;;;;23.30;18.83;;;11.70;99.90;;;;;;5026358;28;20085;-66
2021/05/29 06:26:09;;;;;;;24.13;18.73;;;11.80;99.90;;;;;;5019770;28;20486;-66
2021/05/29 06:28:35;;;;;;;23.55;19.35;;;11.90;99.90;;;;;;5033012;28;20449;-66
2021/05/29 06:31:01;;;;;;;23.98;19.35;;;11.90;99.90;;;;;;5022131;28;20540;-66
2021/05/29 06:33:27;;;;;;;26.45;18.85;;;12.10;99.90;;;;;;5028375;28;20033;-66
2021/05/29 06:35:52;;;;;;;24.70;19.80;;;12.10;99.90;;;;;;5024018;28;20572;-66
2021/05/29 06:38:18;;;;;;;25.38;20.48;;;12.20;99.90;;;;;;5029040;28;20433;-66
2021/05/29 06:40:44;;;;;;;21.50;18.90;;;12.30;99.90;;;;;;5027591;28;20029;-66
2021/05/29 06:43:10;;;;;;;26.52;19.02;;;12.50;99.90;;;;;;5021552;28;20037;-66
2021/05/29 06:45:36;;;;;;;21.20;18.52;;;12.50;99.90;;;;;;5032381;28;20049;-67
2021/05/29 06:48:02;;;;;;;21.95;19.77;;;12.70;99.90;;;;;;5020808;28;20036;-67
2021/05/29 06:50:29;;;;;;;19.63;16.27;;;12.80;99.90;;;;;;5027857;28;20131;-67
2021/05/29 06:52:59;;;;;;;22.13;17.52;;;12.90;99.50;;;;;;5022529;28;20045;-67
2021/05/29 07:00:53;;;;;;;20.10;17.98;;;13.00;98.70;;;;;;5029107;28;20068;-66
2021/05/29 07:03:19;;;;;;;19.88;17.67;;;13.10;98.70;;;;;;5022722;28;20485;-66
2021/05/29 07:05:45;;;;;;;18.88;16.48;;;13.10;98.50;;;;;;5029035;28;20045;-66
2021/05/29 07:08:11;;;;;;;17.35;15.40;;;13.10;98.20;;;;;;5023266;28;20037;-66
2021/05/29 07:10:37;;;;;;;19.75;15.80;;;13.10;98.40;;;;;;5031081;28;20405;-66
2021/05/29 07:13:03;;;;;;;18.80;15.57;;;13.20;98.30;;;;;;5021569;28;20037;-66
2021/05/29 07:15:36;;;;;;;20.75;16.13;;;13.20;97.50;;;;;;5029233;28;20041;-66
2021/05/29 07:18:07;;;;;;;19.42;15.63;;;13.20;97.60;;;;;;5020678;28;20504;-66
2021/05/29 07:20:33;;;;;;;16.70;14.90;;;13.10;97.50;;;;;;5032867;28;20056;-66
2021/05/29 07:23:00;;;;;;;16.83;14.48;;;13.10;96.90;;;;;;5019325;28;20045;-66
2021/05/29 07:25:27;;;;;;;15.32;13.77;;;13.10;97.10;;;;;;5028502;28;20099;-66
2021/05/29 07:27:53;;;;;;;18.00;16.00;;;13.10;97.00;;;;;;5021577;28;20045;-66
2021/05/29 07:30:19;;;;;;;18.90;15.27;;;13.20;97.40;;;;;;5028108;28;20041;-66
2021/05/29 07:32:46;;;;;;;18.92;15.32;;;13.20;97.40;;;;;;5025428;28;20052;-66
2021/05/29 07:35:12;;;;;;;17.25;14.57;;;13.30;97.10;;;;;;5022967;28;20038;-66
2021/05/29 07:37:38;;;;;;;16.58;13.35;;;13.30;97.00;;;;;;5028164;28;20547;-66
2021/05/29 07:40:05;;;;;;;17.08;13.95;;;13.30;96.40;;;;;;5020553;28;20462;-66
2021/05/29 07:42:34;;;;;;;15.18;13.60;;;13.30;96.60;;;;;;5024063;28;20037;-66
2021/05/29 07:44:59;;;;;;;14.07;12.45;;;13.30;96.70;;;;;;5023104;28;20528;-67
2021/05/29 07:47:25;;;;;;;13.95;12.40;;;13.20;96.10;;;;;;5026271;28;20077;-67
2021/05/29 07:49:51;;;;;;;16.10;13.43;;;13.30;96.10;;;;;;5022969;28;20500;-67
2021/05/29 07:52:17;;;;;;;15.07;13.27;;;13.30;96.00;;;;;;5033631;28;20104;-67
2021/05/29 07:54:42;;;;;;;15.18;13.57;;;13.40;96.10;;;;;;5023762;28;20033;-67
2021/05/29 07:57:09;;;;;;;18.20;15.35;;;13.50;95.80;;;;;;5030258;28;20040;-67
2021/05/29 07:59:39;;;;;;;17.52;13.95;;;13.60;95.60;;;;;;5032322;28;20037;-67
2021/05/29 08:02:05;;;;;;;15.30;13.70;;;13.60;95.00;;;;;;5038581;28;20077;-67
2021/05/29 08:04:32;;;;;;;16.25;12.85;;;13.70;95.10;;;;;;5020658;28;20038;-67
2021/05/29 08:06:58;;;;;;;16.00;13.10;;;13.80;94.80;;;;;;5022888;28;20037;-67
2021/05/29 08:09:24;;;;;;;17.05;13.07;;;13.90;94.20;;;;;;5026674;28;20091;-69
2021/05/29 08:11:50;;;;;;;15.20;13.50;;;14.00;94.50;;;;;;5022940;28;20038;-68
2021/05/29 08:14:17;;;;;;;14.98;12.88;;;14.10;93.90;;;;;;5033800;28;20382;-68
2021/05/29 08:16:42;;;;;;;15.70;13.38;;;14.10;93.80;;;;;;5034550;28;20136;-68
2021/05/29 08:19:11;;;;;;;16.73;13.32;;;14.10;93.90;;;;;;5043205;28;20358;-68
2021/05/29 08:21:45;;;;;;;14.40;11.90;;;14.20;94.20;;;;;;5020113;28;20043;-65
2021/05/29 08:24:12;;;;;;;13.88;12.30;;;14.20;93.60;;;;;;5030323;28;20042;-65
2021/05/29 08:26:39;;;;;;;14.45;12.70;;;14.20;93.20;;;;;;5025705;28;20033;-65
2021/05/29 08:29:06;;;;;;;15.40;12.98;;;14.20;92.90;;;;;;5043340;28;20053;-65
2021/05/29 08:31:33;;;;;;;17.02;12.80;;;14.30;93.20;;;;;;5024293;28;20051;-65
2021/05/29 08:33:59;;;;;;;13.98;12.50;;;14.40;93.90;;;;;;5028501;28;20049;-65
2021/05/29 08:36:26;;;;;;;14.65;12.32;;;14.60;93.90;;;;;;5029100;28;20134;-66
2021/05/29 08:38:52;;;;;;;14.23;11.93;;;14.70;93.10;;;;;;5027984;28;20049;-66
2021/05/29 08:41:18;;;;;;;13.52;11.63;;;15.00;92.90;;;;;;5027557;28;20033;-66
2021/05/29 08:43:44;;;;;;;12.18;10.55;;;15.20;92.00;;;;;;5034216;28;20081;-66
2021/05/29 08:46:10;;;;;;;12.15;9.70;;;15.40;91.60;;;;;;5031519;28;20056;-66
2021/05/29 08:48:38;;;;;;;13.25;10.07;;;15.40;90.90;;;;;;5027104;28;20369;-66
2021/05/29 08:51:18;;;;;;;9.63;8.63;;;15.50;91.00;;;;;;5022651;28;20102;-66
2021/05/29 08:53:48;;;;;;;11.02;9.75;;;15.40;89.60;;;;;;5033261;28;20033;-66
2021/05/29 08:56:15;;;;;;;10.27;8.82;;;15.30;90.00;;;;;;5025524;28;20359;-66
2021/05/29 08:58:42;;;;;;;10.57;8.68;;;15.30;90.40;;;;;;5033337;28;20040;-66
2021/05/29 09:01:08;;;;;;;13.25;9.57;;;15.30;90.50;;;;;;5030160;28;20049;-66
2021/05/29 09:03:58;;;;;;;12.00;10.75;;;15.30;90.00;;;;;;5028951;28;20057;-66
2021/05/29 09:06:30;;;;;;;10.27;9.18;;;15.40;89.80;;;;;;5032305;28;20060;-66
2021/05/29 09:09:01;;;;;;;11.52;9.63;;;15.40;90.20;;;;;;5030218;28;20112;-66
2021/05/29 09:11:44;;;;;;;11.35;9.93;;;15.50;88.40;;;;;;5031862;28;20037;-66
2021/05/29 09:14:26;;;;;;;11.90;10.60;;;15.50;87.00;;;;;;5032167;28;20480;-66
2021/05/29 09:17:08;;;;;;;12.98;10.52;;;15.70;89.40;;;;;;5032448;28;20110;-66
2021/05/29 09:19:58;;;;;;;15.65;11.15;;;15.80;85.80;;;;;;5032709;28;20164;-66
2021/05/29 09:22:38;;;;;;;12.25;11.05;;;15.80;85.20;;;;;;5026205;28;20033;-66
2021/05/29 09:25:08;;;;;;;12.70;11.02;;;15.70;86.70;;;;;;5029347;28;20064;-66
2021/05/29 09:27:36;;;;;;;12.23;10.38;;;15.90;88.50;;;;;;5025978;28;20045;-66
2021/05/29 09:30:08;;;;;;;10.55;9.48;;;16.70;89.70;;;;;;5031559;28;20196;-66
2021/05/29 09:32:35;;;;;;;13.48;10.88;;;17.30;86.80;;;;;;5025196;28;20521;-66
2021/05/29 09:35:10;;;;;;;10.20;8.48;;;17.30;83.40;;;;;;5029144;28;20440;-66
2021/05/29 09:37:37;;;;;;;11.65;8.93;;;17.30;78.70;;;;;;5031867;28;20041;-66
2021/05/29 09:40:07;;;;;;;12.93;9.60;;;17.10;78.30;;;;;;5023296;28;20107;-66
2021/05/29 09:42:37;;;;;;;10.60;9.50;;;16.80;79.10;;;;;;5030813;28;20494;-66
2021/05/29 09:45:27;;;;;;;9.38;8.23;;;16.60;78.70;;;;;;5026392;28;20044;-66
2021/05/29 09:48:14;;;;;;;14.60;10.38;;;16.70;78.00;;;;;;5027497;28;20061;-67
2021/05/29 09:51:02;;;;;;;13.25;11.88;;;16.80;79.40;;;;;;5032225;28;20041;-67
2021/05/29 09:53:36;;;;;;;12.07;9.50;;;17.00;78.00;;;;;;5026195;28;20124;-67
2021/05/29 09:56:03;;;;;;;;;;;16.90;78.60;;;;;;5030479;28;20048;-67
2021/05/29 09:59:10;;;;;;;11.82;10.27;;;17.10;77.70;;;;;;5027855;28;20043;-67
2021/05/29 10:01:40;;;;;;;10.65;9.55;;;17.20;73.90;;;;;;4968401;28;20194;-67
2021/05/29 10:04:07;;;;;;;11.27;9.98;;;17.20;78.50;;;;;;4967219;28;20557;-67
2021/05/29 10:06:33;;;;;;;12.40;10.95;;;17.60;79.70;;;;;;5006351;28;20450;-67
2021/05/29 10:09:00;;;;;;;11.30;10.15;;;18.00;78.30;;;;;;5019541;28;20334;-67
2021/05/29 10:11:27;;;;;;;11.07;9.35;;;18.10;75.80;;;;;;5028684;28;20107;-67
2021/05/29 10:13:53;;;;;;;12.25;10.50;;;18.00;74.80;;;;;;5042138;28;20030;-67
2021/05/29 10:16:19;;;;;;;8.73;7.80;;;18.00;73.40;;;;;;5037187;28;20095;-67
2021/05/29 10:18:50;;;;;;;9.25;7.25;;;17.80;73.20;;;;;;5027349;28;20455;-66
2021/05/29 10:21:18;;;;;;;11.23;9.07;;;17.90;73.80;;;;;;5024096;28;20033;-67
2021/05/29 10:23:46;;;;;;;11.00;9.80;;;17.60;72.20;;;;;;5025702;28;20036;-67
2021/05/29 10:26:16;;;;;;;14.07;9.25;;;17.70;74.60;;;;;;5026360;28;20042;-67
2021/05/29 10:28:44;;;;;;;12.55;9.48;;;17.60;73.40;;;;;;5030544;28;20041;-67
2021/05/29 10:31:10;;;;;;;9.43;8.38;;;17.70;74.50;;;;;;5027960;28;20542;-67
2021/05/29 10:33:44;;;;;;;12.07;7.75;;;17.70;72.20;;;;;;5043014;28;20050;-67
2021/05/29 10:36:34;;;;;;;11.50;7.70;;;17.70;71.60;;;;;;5030596;28;20073;-67
2021/05/29 10:39:00;;;;;;;9.13;7.57;;;17.70;70.30;;;;;;5028354;28;20052;-67
2021/05/29 10:41:59;;;;;;;10.75;7.53;;;17.80;72.70;;;;;;5024388;28;20108;-67
2021/05/29 10:44:27;;;;;;;8.40;6.60;;;18.10;71.20;;;;;;4969853;28;20048;-70
2021/05/29 10:47:03;;;;;;;7.50;6.47;;;18.10;72.20;;;;;;5040930;28;20044;-68
2021/05/29 10:49:50;;;;;;;7.88;5.90;;;18.30;69.80;;;;;;5035310;28;20041;-69
2021/05/29 10:52:46;;;;;;;9.50;5.68;;;18.80;66.10;;;;;;5029086;28;20473;-69
2021/05/29 10:55:20;;;;;;;8.00;5.55;;;19.10;61.90;;;;;;5028345;28;20068;-69
2021/05/29 10:58:06;;;;;;;8.90;5.85;;;18.80;65.10;;;;;;5025271;28;20038;-69
2021/05/29 11:00:41;;;;;;;6.95;5.13;;;18.60;64.70;;;;;;5042302;28;20548;-69
2021/05/29 11:03:16;;;;;;;8.02;5.38;;;18.10;65.40;;;;;;5028408;28;20073;-69
2021/05/29 11:05:46;;;;;;;6.97;5.45;;;18.00;67.10;;;;;;5032239;28;20060;-69
2021/05/29 11:08:54;;;;;;;8.15;5.43;;;18.00;69.20;;;;;;5024805;28;20500;-69
2021/05/29 11:11:48;;;;;;;8.13;5.25;;;18.30;67.40;;;;;;4984328;28;20118;-69
2021/05/29 11:14:15;;;;;;;9.65;5.35;;;18.60;65.80;;;;;;4987031;28;20043;-69
2021/05/29 11:16:47;;;;;;;12.48;6.80;;;18.80;65.70;;;;;;5016074;28;20041;-69
2021/05/29 11:19:14;;;;;;;8.05;5.20;;;19.00;63.70;;;;;;5032710;28;20041;-68
2021/05/29 11:22:11;;;;;;;5.95;4.40;;;19.00;67.40;;;;;;5029063;28;20049;-69
2021/05/29 11:24:40;;;;;;;5.80;3.83;;;19.20;62.60;;;;;;5028749;28;20151;-68
2021/05/29 11:27:08;;;;;;;6.75;4.43;;;19.70;61.70;;;;;;5025863;28;20045;-69
2021/05/29 11:29:53;;;;;;;6.82;4.13;;;20.10;61.70;;;;;;5036009;28;20052;-69
2021/05/29 11:35:35;;;;;;;8.30;4.75;;;20.80;54.50;;;;;;5033772;28;20091;-67
2021/05/29 11:38:22;;;;;;;7.90;4.88;;;20.50;57.80;;;;;;5020946;28;20037;-67
2021/05/29 11:40:51;;;;;;;7.88;4.50;;;20.40;56.70;;;;;;5026201;28;20497;-67
2021/05/29 11:43:50;;;;;;;6.50;4.00;;;20.30;59.60;;;;;;5022873;28;20034;-67
2021/05/29 11:46:27;;;;;;;8.88;4.20;;;20.20;56.30;;;;;;5032042;28;20048;-67
2021/05/29 11:49:05;;;;;;;7.20;4.43;;;20.60;60.20;;;;;;5017767;28;20437;-67
2021/05/29 11:51:36;;;;;;;9.18;4.00;;;21.30;58.20;;;;;;5034924;28;20779;-67
2021/05/29 11:54:17;;;;;;;6.80;3.60;;;21.70;56.30;;;;;;5024304;28;20495;-67
2021/05/29 11:56:49;;;;;;;7.28;4.50;;;21.70;53.40;;;;;;5037060;28;20063;-67
2021/05/29 11:59:24;;;;;;;5.90;4.00;;;21.30;54.40;;;;;;5026035;28;20102;-67
2021/05/29 12:01:53;;;;;;;7.88;4.50;;;21.10;55.10;;;;;;5022004;28;20350;-67
2021/05/29 12:04:29;;;;;;;6.25;4.00;;;20.30;54.90;;;;;;5024425;28;20244;-67
2021/05/29 12:07:01;;;;;;;6.85;4.07;;;19.70;57.00;;;;;;5027058;28;20040;-67
2021/05/29 12:09:29;;;;;;;7.32;3.60;;;19.30;58.30;;;;;;5024399;28;20036;-67
2021/05/29 12:12:00;;;;;;;5.63;3.55;;;19.60;59.40;;;;;;5028315;28;20042;-67
2021/05/29 12:14:33;;;;;;;5.00;3.67;;;20.20;57.20;;;;;;5033356;28;20038;-67
2021/05/29 12:17:04;;;;;;;7.13;4.70;;;20.70;54.50;;;;;;5024972;28;20068;-67
2021/05/29 12:19:37;;;;;;;6.28;3.67;;;21.20;56.30;;;;;;5023468;28;20128;-67
2021/05/29 12:22:06;;;;;;;5.60;3.53;;;21.70;52.90;;;;;;5030559;28;20465;-67
2021/05/29 12:24:51;;;;;;;4.22;2.97;;;22.10;54.30;;;;;;5020085;28;20568;-67
2021/05/29 12:27:25;;;;;;;12.05;3.80;;;22.10;51.10;;;;;;5037422;28;20493;-67
2021/05/29 12:30:03;;;;;;;11.52;4.07;;;22.00;51.00;;;;;;5017806;28;20433;-67
2021/05/29 12:32:39;;;;;;;4.85;3.13;;;21.80;52.50;;;;;;5030487;28;20041;-67
2021/05/29 12:35:07;;;;;;;6.38;3.50;;;21.80;52.70;;;;;;5024930;28;20038;-67
2021/05/29 12:37:35;;;;;;;5.15;3.55;;;22.00;54.10;;;;;;5034846;28;20037;-67
2021/05/29 12:40:11;;;;;;;6.80;4.40;;;21.80;53.90;;;;;;5027566;28;20051;-68
2021/05/29 12:42:44;;;;;;;23.45;20.42;;;21.20;53.30;;;;;;5033795;28;20516;-68
2021/05/29 12:45:18;;;;;;;4.93;3.72;;;20.50;55.30;;;;;;5028943;28;20085;-68
2021/05/29 12:47:57;;;;;;;7.75;3.58;;;19.70;57.50;;;;;;5038469;28;20122;-68
2021/05/29 12:50:38;;;;;;;6.22;3.63;;;19.70;60.00;;;;;;5028815;28;20501;-66
2021/05/29 12:53:15;;;;;;;16.15;4.28;;;20.00;61.10;;;;;;5025553;28;20199;-66
2021/05/29 12:55:42;;;;;;;7.40;3.50;;;20.30;54.70;;;;;;5023837;28;20597;-67
2021/05/29 12:58:16;;;;;;;191.88;16.55;;;20.50;56.20;;;;;;5037073;28;20405;-67
2021/05/29 13:01:15;;;;;;;6.78;4.07;;;21.00;57.10;;;;;;5029157;28;20136;-67
2021/05/29 13:12:19;;;;;;;6.05;3.70;;;20.20;56.50;;;;;;5032962;28;20132;-66
2021/05/29 13:14:46;;;;;;;6.72;3.83;;;20.00;55.60;;;;;;5028716;28;20156;-66